createdAt,value
2017-05-08T00:00:02.247Z,11.64
2017-05-08T00:00:42.755Z,11.65
2017-05-08T00:01:23.295Z,11.67
2017-05-08T00:02:03.850Z,11.65
2017-05-08T00:02:44.383Z,11.64
2017-05-08T00:03:24.934Z,11.51
2017-05-08T00:04:05.483Z,11.54
2017-05-08T00:04:46.036Z,11.54
2017-05-08T00:05:26.583Z,11.49
2017-05-08T00:06:07.130Z,11.57
2017-05-08T00:06:47.669Z,11.54
2017-05-08T00:07:28.218Z,11.55
2017-05-08T00:08:08.763Z,11.65
2017-05-08T00:08:49.300Z,11.65
2017-05-08T00:09:29.837Z,11.55
2017-05-08T00:10:10.385Z,11.52
2017-05-08T00:10:50.923Z,11.58
2017-05-08T00:11:31.470Z,11.52
2017-05-08T00:12:12.007Z,11.52
2017-05-08T00:12:52.571Z,11.49
2017-05-08T00:13:33.108Z,11.51
2017-05-08T00:14:13.649Z,11.42
2017-05-08T00:14:54.196Z,11.4
2017-05-08T00:15:34.746Z,11.42
2017-05-08T00:16:15.296Z,11.4
2017-05-08T00:16:55.849Z,11.4
2017-05-08T00:17:36.439Z,11.35
2017-05-08T00:18:16.951Z,11.36
2017-05-08T00:18:57.505Z,11.36
2017-05-08T00:19:38.070Z,11.37
2017-05-08T00:20:18.603Z,11.42
2017-05-08T00:20:59.177Z,11.39
2017-05-08T00:21:39.718Z,11.35
2017-05-08T00:22:20.262Z,11.35
2017-05-08T00:23:00.805Z,11.25
2017-05-08T00:23:41.356Z,11.27
2017-05-08T00:24:21.904Z,11.18
2017-05-08T00:25:02.455Z,11.25
2017-05-08T00:25:43.004Z,11.24
2017-05-08T00:26:23.554Z,11.19
2017-05-08T00:27:04.094Z,11.11
2017-05-08T00:27:44.642Z,11.25
2017-05-08T00:28:25.188Z,11.24
2017-05-08T00:29:05.724Z,11.18
2017-05-08T00:29:46.289Z,11.19
2017-05-08T00:30:26.820Z,11.25
2017-05-08T00:31:07.357Z,11.28
2017-05-08T00:31:47.896Z,11.19
2017-05-08T00:32:28.441Z,11.18
2017-05-08T00:33:08.996Z,11.07
2017-05-08T00:33:49.514Z,11.06
2017-05-08T00:34:30.059Z,11.04
2017-05-08T00:35:10.599Z,11.07
2017-05-08T00:35:51.143Z,11.17
2017-05-08T00:36:31.678Z,11.06
2017-05-08T00:37:12.211Z,11.18
2017-05-08T00:37:52.751Z,11.15
2017-05-08T00:38:33.295Z,11.11
2017-05-08T00:39:13.838Z,11.19
2017-05-08T00:39:54.387Z,11.03
2017-05-08T00:40:34.941Z,11.04
2017-05-08T00:41:15.476Z,11.04
2017-05-08T00:41:56.029Z,10.97
2017-05-08T00:42:36.578Z,11
2017-05-08T00:43:17.143Z,10.88
2017-05-08T00:43:57.693Z,10.85
2017-05-08T00:44:38.229Z,10.88
2017-05-08T00:45:18.778Z,10.82
2017-05-08T00:45:59.350Z,10.89
2017-05-08T00:46:39.904Z,10.91
2017-05-08T00:47:20.471Z,10.86
2017-05-08T00:48:00.986Z,10.82
2017-05-08T00:48:41.538Z,10.88
2017-05-08T00:49:22.089Z,10.85
2017-05-08T00:50:02.641Z,10.82
2017-05-08T00:50:43.188Z,10.82
2017-05-08T00:51:23.742Z,10.79
2017-05-08T00:52:04.304Z,10.88
2017-05-08T00:52:44.843Z,10.74
2017-05-08T00:53:25.389Z,10.84
2017-05-08T00:54:05.943Z,10.74
2017-05-08T00:54:46.496Z,10.73
2017-05-08T00:55:27.039Z,10.73
2017-05-08T00:56:07.579Z,10.73
2017-05-08T00:56:48.125Z,10.74
2017-05-08T00:57:28.668Z,10.74
2017-05-08T00:58:09.207Z,10.81
2017-05-08T00:58:49.752Z,10.81
2017-05-08T00:59:30.286Z,10.79
2017-05-08T01:00:10.831Z,10.89
2017-05-08T01:00:51.387Z,10.71
2017-05-08T01:01:31.932Z,10.76
2017-05-08T01:02:12.483Z,10.76
2017-05-08T01:02:53.031Z,10.7
2017-05-08T01:03:33.588Z,10.73
2017-05-08T01:04:14.137Z,10.78
2017-05-08T01:04:54.678Z,10.82
2017-05-08T01:05:35.227Z,10.73
2017-05-08T01:06:15.763Z,10.71
2017-05-08T01:06:56.309Z,10.6
2017-05-08T01:07:36.861Z,10.64
2017-05-08T01:08:17.406Z,10.59
2017-05-08T01:08:57.955Z,10.63
2017-05-08T01:09:38.494Z,10.63
2017-05-08T01:10:19.040Z,10.59
2017-05-08T01:10:59.587Z,10.6
2017-05-08T01:11:40.129Z,10.56
2017-05-08T01:12:20.675Z,10.6
2017-05-08T01:13:01.218Z,10.53
2017-05-08T01:13:41.751Z,10.53
2017-05-08T01:14:22.298Z,10.53
2017-05-08T01:15:02.845Z,10.44
2017-05-08T01:15:43.380Z,10.48
2017-05-08T01:16:23.930Z,10.44
2017-05-08T01:17:04.480Z,10.41
2017-05-08T01:17:45.033Z,10.44
2017-05-08T01:18:25.574Z,10.44
2017-05-08T01:19:06.122Z,10.42
2017-05-08T01:19:46.673Z,10.44
2017-05-08T01:20:27.212Z,10.42
2017-05-08T01:21:07.752Z,10.42
2017-05-08T01:21:48.300Z,10.45
2017-05-08T01:22:28.851Z,10.42
2017-05-08T01:23:09.402Z,10.45
2017-05-08T01:23:49.951Z,10.4
2017-05-08T01:24:30.500Z,10.4
2017-05-08T01:25:11.039Z,10.38
2017-05-08T01:25:51.589Z,10.4
2017-05-08T01:26:32.133Z,10.38
2017-05-08T01:27:12.671Z,10.26
2017-05-08T01:27:53.215Z,10.25
2017-05-08T01:28:33.762Z,10.27
2017-05-08T01:29:14.310Z,10.22
2017-05-08T01:29:54.859Z,10.2
2017-05-08T01:30:35.399Z,10.2
2017-05-08T01:31:16.015Z,10.07
2017-05-08T01:31:56.485Z,10.07
2017-05-08T01:32:37.038Z,10.01
2017-05-08T01:33:17.588Z,10.01
2017-05-08T01:33:58.138Z,10.04
2017-05-08T01:34:38.687Z,9.99
2017-05-08T01:35:19.239Z,10.04
2017-05-08T01:35:59.797Z,10.02
2017-05-08T01:36:40.345Z,10.07
2017-05-08T01:37:20.891Z,10.04
2017-05-08T01:38:01.441Z,10.08
2017-05-08T01:38:41.986Z,10.11
2017-05-08T01:39:22.527Z,10.08
2017-05-08T01:40:03.092Z,10.12
2017-05-08T01:40:43.644Z,10.12
2017-05-08T01:41:24.197Z,10.09
2017-05-08T01:42:04.752Z,10.04
2017-05-08T01:42:45.301Z,10.12
2017-05-08T01:43:25.865Z,10.11
2017-05-08T01:44:06.414Z,10.11
2017-05-08T01:44:46.958Z,10.07
2017-05-08T01:45:27.521Z,10.12
2017-05-08T01:46:08.056Z,10.09
2017-05-08T01:46:48.604Z,10.08
2017-05-08T01:47:29.158Z,10.08
2017-05-08T01:48:09.711Z,10.09
2017-05-08T01:48:57.203Z,10.02
2017-05-08T01:49:37.737Z,10.05
2017-05-08T01:50:18.276Z,10.05
2017-05-08T01:50:58.809Z,10.01
2017-05-08T01:51:39.346Z,10.05
2017-05-08T01:52:19.880Z,9.99
2017-05-08T01:53:00.418Z,10.05
2017-05-08T01:53:40.959Z,10.04
2017-05-08T01:54:21.495Z,10.08
2017-05-08T01:55:02.031Z,10.05
2017-05-08T01:55:42.558Z,10.08
2017-05-08T01:56:23.098Z,10.05
2017-05-08T01:57:03.631Z,10.04
2017-05-08T01:57:44.168Z,10.05
2017-05-08T01:58:24.706Z,10.05
2017-05-08T01:59:05.243Z,10.08
2017-05-08T01:59:45.779Z,10.11
2017-05-08T02:00:26.315Z,10.15
2017-05-08T02:01:06.852Z,10.07
2017-05-08T02:01:47.387Z,10.11
2017-05-08T02:02:27.921Z,10.12
2017-05-08T02:03:08.459Z,10.04
2017-05-08T02:03:48.994Z,10.05
2017-05-08T02:04:29.529Z,10.07
2017-05-08T02:05:10.060Z,10.07
2017-05-08T02:05:50.601Z,10.07
2017-05-08T02:06:31.139Z,9.97
2017-05-08T02:07:11.674Z,10.05
2017-05-08T02:07:52.205Z,10.07
2017-05-08T02:08:32.734Z,10.07
2017-05-08T02:09:13.269Z,10.02
2017-05-08T02:09:53.808Z,10.01
2017-05-08T02:10:34.343Z,10.07
2017-05-08T02:11:14.873Z,10.04
2017-05-08T02:11:55.408Z,9.99
2017-05-08T02:12:35.951Z,10.05
2017-05-08T02:13:16.493Z,10.01
2017-05-08T02:13:57.025Z,10.05
2017-05-08T02:14:37.565Z,10.04
2017-05-08T02:15:18.097Z,9.97
2017-05-08T02:15:58.637Z,9.89
2017-05-08T02:16:39.177Z,9.9
2017-05-08T02:17:19.716Z,9.93
2017-05-08T02:18:00.255Z,10.04
2017-05-08T02:18:40.786Z,9.9
2017-05-08T02:19:21.316Z,10.01
2017-05-08T02:20:01.852Z,9.94
2017-05-08T02:20:42.384Z,10.01
2017-05-08T02:21:22.921Z,9.99
2017-05-08T02:22:03.453Z,9.87
2017-05-08T02:22:43.989Z,9.9
2017-05-08T02:23:24.519Z,9.84
2017-05-08T02:24:05.055Z,9.78
2017-05-08T02:24:45.595Z,9.83
2017-05-08T02:25:26.133Z,9.79
2017-05-08T02:26:06.674Z,9.76
2017-05-08T02:26:47.214Z,9.76
2017-05-08T02:27:27.748Z,9.78
2017-05-08T02:28:08.279Z,9.79
2017-05-08T02:28:48.819Z,9.87
2017-05-08T02:29:29.349Z,9.74
2017-05-08T02:30:09.898Z,9.83
2017-05-08T02:30:50.437Z,9.79
2017-05-08T02:31:30.971Z,9.76
2017-05-08T02:32:11.512Z,9.78
2017-05-08T02:32:52.034Z,9.75
2017-05-08T02:33:32.565Z,9.65
2017-05-08T02:34:13.103Z,9.66
2017-05-08T02:34:53.640Z,9.61
2017-05-08T02:35:34.180Z,9.75
2017-05-08T02:36:14.711Z,9.61
2017-05-08T02:36:55.240Z,9.71
2017-05-08T02:37:35.783Z,9.68
2017-05-08T02:38:16.319Z,9.69
2017-05-08T02:38:56.850Z,9.69
2017-05-08T02:39:37.381Z,9.71
2017-05-08T02:40:17.913Z,9.71
2017-05-08T02:40:58.439Z,9.66
2017-05-08T02:41:38.974Z,9.58
2017-05-08T02:42:19.510Z,9.68
2017-05-08T02:43:00.046Z,9.65
2017-05-08T02:43:40.581Z,9.6
2017-05-08T02:44:21.113Z,9.6
2017-05-08T02:45:01.651Z,9.58
2017-05-08T02:45:42.184Z,9.66
2017-05-08T02:46:22.722Z,9.61
2017-05-08T02:47:03.253Z,9.64
2017-05-08T02:47:43.789Z,9.54
2017-05-08T02:48:24.334Z,9.64
2017-05-08T02:49:04.884Z,9.56
2017-05-08T02:49:45.420Z,9.64
2017-05-08T02:50:25.955Z,9.5
2017-05-08T02:51:06.488Z,9.58
2017-05-08T02:51:47.024Z,9.61
2017-05-08T02:52:27.558Z,9.5
2017-05-08T02:53:08.092Z,9.56
2017-05-08T02:53:48.632Z,9.54
2017-05-08T02:54:29.154Z,9.53
2017-05-08T02:55:09.691Z,9.5
2017-05-08T02:55:50.236Z,9.53
2017-05-08T02:56:30.770Z,9.56
2017-05-08T02:57:11.312Z,9.47
2017-05-08T02:57:51.844Z,9.51
2017-05-08T02:58:32.381Z,9.5
2017-05-08T02:59:12.916Z,9.56
2017-05-08T02:59:53.453Z,9.39
2017-05-08T03:00:33.994Z,9.43
2017-05-08T03:01:14.524Z,9.4
2017-05-08T03:01:55.062Z,9.43
2017-05-08T03:02:35.602Z,9.35
2017-05-08T03:03:16.132Z,9.33
2017-05-08T03:03:56.670Z,9.35
2017-05-08T03:04:37.189Z,9.31
2017-05-08T03:05:17.726Z,9.38
2017-05-08T03:05:58.265Z,9.32
2017-05-08T03:06:38.801Z,9.31
2017-05-08T03:07:19.336Z,9.31
2017-05-08T03:07:59.870Z,9.32
2017-05-08T03:08:40.405Z,9.28
2017-05-08T03:09:20.941Z,9.31
2017-05-08T03:10:01.474Z,9.29
2017-05-08T03:10:42.012Z,9.29
2017-05-08T03:11:22.548Z,9.28
2017-05-08T03:12:03.081Z,9.32
2017-05-08T03:12:43.609Z,9.32
2017-05-08T03:13:24.147Z,9.39
2017-05-08T03:14:04.680Z,9.38
2017-05-08T03:14:45.213Z,9.4
2017-05-08T03:15:25.740Z,9.4
2017-05-08T03:16:06.268Z,9.35
2017-05-08T03:16:46.811Z,9.46
2017-05-08T03:17:27.338Z,9.4
2017-05-08T03:18:07.875Z,9.39
2017-05-08T03:18:48.411Z,9.4
2017-05-08T03:19:28.955Z,9.38
2017-05-08T03:20:09.481Z,9.42
2017-05-08T03:20:50.016Z,9.42
2017-05-08T03:21:30.547Z,9.38
2017-05-08T03:22:11.086Z,9.31
2017-05-08T03:22:51.628Z,9.31
2017-05-08T03:23:32.163Z,9.35
2017-05-08T03:24:12.705Z,9.29
2017-05-08T03:24:53.244Z,9.35
2017-05-08T03:25:33.773Z,9.32
2017-05-08T03:26:14.320Z,9.31
2017-05-08T03:26:54.873Z,9.29
2017-05-08T03:27:35.380Z,9.32
2017-05-08T03:28:15.914Z,9.33
2017-05-08T03:28:56.454Z,9.29
2017-05-08T03:29:36.980Z,9.38
2017-05-08T03:30:17.524Z,9.26
2017-05-08T03:30:58.056Z,9.33
2017-05-08T03:31:38.583Z,9.29
2017-05-08T03:32:19.120Z,9.35
2017-05-08T03:32:59.654Z,9.32
2017-05-08T03:33:40.186Z,9.39
2017-05-08T03:34:20.719Z,9.39
2017-05-08T03:35:01.256Z,9.35
2017-05-08T03:35:41.788Z,9.42
2017-05-08T03:36:22.325Z,9.43
2017-05-08T03:37:02.860Z,9.43
2017-05-08T03:37:43.382Z,9.35
2017-05-08T03:38:23.925Z,9.36
2017-05-08T03:39:04.522Z,9.39
2017-05-08T03:39:45.010Z,9.38
2017-05-08T03:40:25.567Z,9.33
2017-05-08T03:41:06.081Z,9.39
2017-05-08T03:41:46.630Z,9.38
2017-05-08T03:42:27.158Z,9.33
2017-05-08T03:43:07.698Z,9.31
2017-05-08T03:43:48.229Z,9.33
2017-05-08T03:44:28.774Z,9.35
2017-05-08T03:45:09.297Z,9.29
2017-05-08T03:45:49.838Z,9.35
2017-05-08T03:46:30.377Z,9.32
2017-05-08T03:47:10.908Z,9.32
2017-05-08T03:47:51.442Z,9.33
2017-05-08T03:48:31.979Z,9.32
2017-05-08T03:49:12.517Z,9.31
2017-05-08T03:49:53.048Z,9.32
2017-05-08T03:50:33.597Z,9.31
2017-05-08T03:51:14.144Z,9.35
2017-05-08T03:51:54.666Z,9.33
2017-05-08T03:52:35.188Z,9.38
2017-05-08T03:53:15.722Z,9.36
2017-05-08T03:53:56.257Z,9.42
2017-05-08T03:54:36.794Z,9.32
2017-05-08T03:55:17.342Z,9.35
2017-05-08T03:55:57.860Z,9.32
2017-05-08T03:56:38.403Z,9.4
2017-05-08T03:57:19.466Z,9.42
2017-05-08T03:58:00.003Z,9.43
2017-05-08T03:58:40.560Z,9.42
2017-05-08T03:59:21.060Z,9.43
2017-05-08T04:00:01.598Z,9.42
2017-05-08T04:00:42.132Z,9.43
2017-05-08T04:01:22.664Z,9.42
2017-05-08T04:02:03.237Z,9.4
2017-05-08T04:02:43.774Z,9.42
2017-05-08T04:03:24.308Z,9.43
2017-05-08T04:04:04.844Z,9.42
2017-05-08T04:04:45.383Z,9.46
2017-05-08T04:05:25.923Z,9.43
2017-05-08T04:06:06.461Z,9.46
2017-05-08T04:06:47.002Z,9.36
2017-05-08T04:07:27.532Z,9.4
2017-05-08T04:08:08.063Z,9.42
2017-05-08T04:08:48.613Z,9.39
2017-05-08T04:09:29.133Z,9.48
2017-05-08T04:10:09.672Z,9.38
2017-05-08T04:10:50.205Z,9.4
2017-05-08T04:11:30.727Z,9.43
2017-05-08T04:12:11.260Z,9.38
2017-05-08T04:12:51.802Z,9.39
2017-05-08T04:13:32.343Z,9.39
2017-05-08T04:14:12.894Z,9.36
2017-05-08T04:14:53.431Z,9.42
2017-05-08T04:15:33.966Z,9.48
2017-05-08T04:16:14.501Z,9.4
2017-05-08T04:16:55.034Z,9.46
2017-05-08T04:17:35.575Z,9.4
2017-05-08T04:18:16.128Z,9.5
2017-05-08T04:18:56.667Z,9.5
2017-05-08T04:19:37.199Z,9.46
2017-05-08T04:20:17.736Z,9.47
2017-05-08T04:20:58.268Z,9.47
2017-05-08T04:21:38.806Z,9.5
2017-05-08T04:22:19.334Z,9.47
2017-05-08T04:22:59.869Z,9.54
2017-05-08T04:23:40.402Z,9.54
2017-05-08T04:24:21.131Z,9.54
2017-05-08T04:25:01.671Z,9.51
2017-05-08T04:25:42.206Z,9.54
2017-05-08T04:26:22.738Z,9.47
2017-05-08T04:27:03.266Z,9.48
2017-05-08T04:27:43.810Z,9.48
2017-05-08T04:28:24.347Z,9.51
2017-05-08T04:29:04.885Z,9.5
2017-05-08T04:29:45.435Z,9.53
2017-05-08T04:30:25.953Z,9.48
2017-05-08T04:31:06.485Z,9.5
2017-05-08T04:31:47.046Z,9.51
2017-05-08T04:32:27.554Z,9.51
2017-05-08T04:33:08.090Z,9.48
2017-05-08T04:33:48.619Z,9.5
2017-05-08T04:34:29.155Z,9.5
2017-05-08T04:35:09.688Z,9.51
2017-05-08T04:35:50.223Z,9.5
2017-05-08T04:36:30.759Z,9.5
2017-05-08T04:37:11.295Z,9.47
2017-05-08T04:37:51.831Z,9.5
2017-05-08T04:38:32.374Z,9.4
2017-05-08T04:39:12.897Z,9.42
2017-05-08T04:39:53.552Z,9.47
2017-05-08T04:40:34.079Z,9.48
2017-05-08T04:41:14.610Z,9.47
2017-05-08T04:41:55.172Z,9.48
2017-05-08T04:42:35.674Z,9.38
2017-05-08T04:43:16.197Z,9.5
2017-05-08T04:43:56.732Z,9.47
2017-05-08T04:44:37.268Z,9.51
2017-05-08T04:45:17.810Z,9.51
2017-05-08T04:45:58.342Z,9.5
2017-05-08T04:46:38.902Z,9.51
2017-05-08T04:47:19.411Z,9.53
2017-05-08T04:47:59.941Z,9.54
2017-05-08T04:48:40.467Z,9.54
2017-05-08T04:49:21.004Z,9.54
2017-05-08T04:50:01.543Z,9.6
2017-05-08T04:50:42.077Z,9.51
2017-05-08T04:51:22.611Z,9.57
2017-05-08T04:52:03.153Z,9.51
2017-05-08T04:52:43.702Z,9.6
2017-05-08T04:53:24.227Z,9.51
2017-05-08T04:54:04.771Z,9.58
2017-05-08T04:54:45.308Z,9.58
2017-05-08T04:55:25.846Z,9.6
2017-05-08T04:56:06.380Z,9.58
2017-05-08T04:56:46.907Z,9.57
2017-05-08T04:57:27.465Z,9.61
2017-05-08T04:58:07.983Z,9.65
2017-05-08T04:58:48.530Z,9.69
2017-05-08T04:59:29.059Z,9.58
2017-05-08T05:00:09.589Z,9.65
2017-05-08T05:00:50.116Z,9.58
2017-05-08T05:01:30.662Z,9.61
2017-05-08T05:02:11.199Z,9.65
2017-05-08T05:02:51.714Z,9.57
2017-05-08T05:03:32.244Z,9.68
2017-05-08T05:04:12.763Z,9.66
2017-05-08T05:04:53.299Z,9.68
2017-05-08T05:05:33.835Z,9.65
2017-05-08T05:06:14.404Z,9.66
2017-05-08T05:06:54.934Z,9.69
2017-05-08T05:07:35.494Z,9.69
2017-05-08T05:08:16.031Z,9.58
2017-05-08T05:08:56.564Z,9.69
2017-05-08T05:09:37.094Z,9.68
2017-05-08T05:10:17.623Z,9.72
2017-05-08T05:10:58.160Z,9.6
2017-05-08T05:11:38.696Z,9.68
2017-05-08T05:12:19.254Z,9.65
2017-05-08T05:12:59.795Z,9.64
2017-05-08T05:13:40.346Z,9.58
2017-05-08T05:14:20.885Z,9.69
2017-05-08T05:15:01.421Z,9.65
2017-05-08T05:15:41.962Z,9.6
2017-05-08T05:16:22.503Z,9.6
2017-05-08T05:17:03.039Z,9.64
2017-05-08T05:17:43.572Z,9.54
2017-05-08T05:18:24.103Z,9.6
2017-05-08T05:19:04.639Z,9.6
2017-05-08T05:19:45.173Z,9.61
2017-05-08T05:20:25.743Z,9.68
2017-05-08T05:21:06.283Z,9.6
2017-05-08T05:21:46.810Z,9.69
2017-05-08T05:22:27.349Z,9.68
2017-05-08T05:23:07.856Z,9.56
2017-05-08T05:23:48.393Z,9.51
2017-05-08T05:24:28.928Z,9.57
2017-05-08T05:25:09.465Z,9.65
2017-05-08T05:25:50.001Z,9.57
2017-05-08T05:26:30.523Z,9.57
2017-05-08T05:27:11.066Z,9.6
2017-05-08T05:27:51.602Z,9.61
2017-05-08T05:28:32.135Z,9.68
2017-05-08T05:29:12.678Z,9.69
2017-05-08T05:29:53.212Z,9.61
2017-05-08T05:30:33.737Z,9.69
2017-05-08T05:31:14.382Z,9.72
2017-05-08T05:31:54.898Z,9.72
2017-05-08T05:32:35.438Z,9.64
2017-05-08T05:33:15.980Z,9.69
2017-05-08T05:33:56.556Z,9.65
2017-05-08T05:34:37.104Z,9.72
2017-05-08T05:35:17.642Z,9.69
2017-05-08T05:35:58.184Z,9.66
2017-05-08T05:36:38.723Z,9.68
2017-05-08T05:37:19.260Z,9.72
2017-05-08T05:37:59.796Z,9.69
2017-05-08T05:38:40.328Z,9.66
2017-05-08T05:39:20.905Z,9.72
2017-05-08T05:40:01.438Z,9.68
2017-05-08T05:40:41.987Z,9.61
2017-05-08T05:41:22.520Z,9.61
2017-05-08T05:42:03.053Z,9.66
2017-05-08T05:42:43.600Z,9.65
2017-05-08T05:43:24.140Z,9.75
2017-05-08T05:44:04.677Z,9.75
2017-05-08T05:44:45.210Z,9.75
2017-05-08T05:45:25.842Z,9.79
2017-05-08T05:46:06.623Z,9.76
2017-05-08T05:46:47.175Z,9.61
2017-05-08T05:47:27.700Z,9.68
2017-05-08T05:48:08.236Z,9.71
2017-05-08T05:48:48.774Z,9.61
2017-05-08T05:49:29.305Z,9.65
2017-05-08T05:50:09.839Z,9.75
2017-05-08T05:50:50.364Z,9.72
2017-05-08T05:51:30.907Z,9.75
2017-05-08T05:52:11.435Z,9.78
2017-05-08T05:52:51.977Z,9.71
2017-05-08T05:53:32.514Z,9.76
2017-05-08T05:54:13.046Z,9.76
2017-05-08T05:54:53.584Z,9.75
2017-05-08T05:55:34.117Z,9.72
2017-05-08T05:56:14.654Z,9.9
2017-05-08T05:56:55.182Z,9.81
2017-05-08T05:57:35.718Z,9.78
2017-05-08T05:58:16.260Z,9.76
2017-05-08T05:58:56.798Z,9.74
2017-05-08T05:59:37.336Z,9.74
2017-05-08T06:00:17.871Z,9.72
2017-05-08T06:00:58.406Z,9.71
2017-05-08T06:01:38.939Z,9.69
2017-05-08T06:02:19.474Z,9.84
2017-05-08T06:03:00.015Z,9.76
2017-05-08T06:03:40.548Z,9.76
2017-05-08T06:04:21.080Z,9.75
2017-05-08T06:05:01.602Z,9.72
2017-05-08T06:05:42.149Z,9.78
2017-05-08T06:06:22.688Z,9.75
2017-05-08T06:07:03.228Z,9.76
2017-05-08T06:07:43.792Z,9.75
2017-05-08T06:08:24.328Z,9.72
2017-05-08T06:09:04.869Z,9.76
2017-05-08T06:09:45.383Z,9.76
2017-05-08T06:10:25.917Z,9.81
2017-05-08T06:11:06.449Z,9.86
2017-05-08T06:11:47.037Z,9.78
2017-05-08T06:12:27.574Z,9.81
2017-05-08T06:13:08.117Z,9.83
2017-05-08T06:13:48.654Z,9.71
2017-05-08T06:14:29.189Z,9.79
2017-05-08T06:15:09.726Z,9.81
2017-05-08T06:15:50.262Z,9.74
2017-05-08T06:16:30.791Z,9.76
2017-05-08T06:17:11.342Z,9.78
2017-05-08T06:17:51.857Z,9.83
2017-05-08T06:18:32.389Z,9.76
2017-05-08T06:19:12.930Z,9.81
2017-05-08T06:19:53.470Z,9.78
2017-05-08T06:20:34.005Z,9.86
2017-05-08T06:21:14.535Z,9.9
2017-05-08T06:21:55.073Z,9.86
2017-05-08T06:22:35.610Z,9.86
2017-05-08T06:23:16.141Z,9.9
2017-05-08T06:23:56.684Z,9.87
2017-05-08T06:24:37.221Z,9.9
2017-05-08T06:25:17.758Z,9.84
2017-05-08T06:25:58.293Z,9.86
2017-05-08T06:26:38.829Z,9.9
2017-05-08T06:27:19.372Z,9.93
2017-05-08T06:27:59.906Z,9.93
2017-05-08T06:28:40.445Z,9.94
2017-05-08T06:29:20.987Z,9.87
2017-05-08T06:30:01.523Z,9.94
2017-05-08T06:30:42.054Z,10.01
2017-05-08T06:31:22.595Z,9.97
2017-05-08T06:32:03.133Z,9.99
2017-05-08T06:32:43.672Z,10.01
2017-05-08T06:33:24.203Z,9.87
2017-05-08T06:34:04.743Z,9.97
2017-05-08T06:34:45.284Z,9.9
2017-05-08T06:35:25.819Z,9.9
2017-05-08T06:36:06.357Z,9.91
2017-05-08T06:36:46.895Z,9.89
2017-05-08T06:37:27.440Z,10.02
2017-05-08T06:38:07.970Z,9.91
2017-05-08T06:38:48.504Z,9.97
2017-05-08T06:39:29.046Z,10.01
2017-05-08T06:40:09.578Z,9.97
2017-05-08T06:40:50.105Z,9.87
2017-05-08T06:41:30.640Z,9.97
2017-05-08T06:42:11.176Z,9.97
2017-05-08T06:42:51.724Z,9.99
2017-05-08T06:43:32.259Z,10.04
2017-05-08T06:44:12.798Z,9.99
2017-05-08T06:44:53.319Z,9.96
2017-05-08T06:45:33.854Z,10.02
2017-05-08T06:46:14.394Z,10.02
2017-05-08T06:46:54.923Z,10.02
2017-05-08T06:47:35.459Z,10.04
2017-05-08T06:48:15.997Z,10.09
2017-05-08T06:48:56.527Z,10.12
2017-05-08T06:49:37.052Z,10.04
2017-05-08T06:50:17.603Z,10.12
2017-05-08T06:50:58.152Z,10.2
2017-05-08T06:51:38.679Z,10.14
2017-05-08T06:52:19.214Z,10.18
2017-05-08T06:52:59.755Z,10.23
2017-05-08T06:53:40.298Z,10.22
2017-05-08T06:54:20.837Z,10.25
2017-05-08T06:55:01.373Z,10.27
2017-05-08T06:55:41.912Z,10.26
2017-05-08T06:56:22.461Z,10.34
2017-05-08T06:57:02.989Z,10.25
2017-05-08T06:57:43.521Z,10.27
2017-05-08T06:58:24.061Z,10.25
2017-05-08T06:59:04.592Z,10.3
2017-05-08T06:59:45.120Z,10.34
2017-05-08T07:00:25.655Z,10.4
2017-05-08T07:01:06.197Z,10.42
2017-05-08T07:01:46.740Z,10.38
2017-05-08T07:02:27.274Z,10.38
2017-05-08T07:03:07.814Z,10.38
2017-05-08T07:03:48.354Z,10.41
2017-05-08T07:04:28.879Z,10.42
2017-05-08T07:05:09.421Z,10.44
2017-05-08T07:05:49.958Z,10.42
2017-05-08T07:06:30.489Z,10.36
2017-05-08T07:07:11.042Z,10.36
2017-05-08T07:07:51.567Z,10.42
2017-05-08T07:08:32.099Z,10.42
2017-05-08T07:09:12.622Z,10.41
2017-05-08T07:09:53.171Z,10.4
2017-05-08T07:10:33.714Z,10.38
2017-05-08T07:11:14.244Z,10.33
2017-05-08T07:11:54.784Z,10.41
2017-05-08T07:12:35.346Z,10.36
2017-05-08T07:13:15.881Z,10.41
2017-05-08T07:13:56.428Z,10.38
2017-05-08T07:14:36.965Z,10.3
2017-05-08T07:15:17.489Z,10.32
2017-05-08T07:15:58.025Z,10.29
2017-05-08T07:16:38.569Z,10.33
2017-05-08T07:17:19.108Z,10.29
2017-05-08T07:17:59.649Z,10.23
2017-05-08T07:18:40.181Z,10.2
2017-05-08T07:19:20.734Z,10.22
2017-05-08T07:20:01.271Z,10.18
2017-05-08T07:20:41.799Z,10.25
2017-05-08T07:21:22.341Z,10.23
2017-05-08T07:22:02.876Z,10.23
2017-05-08T07:22:43.413Z,10.26
2017-05-08T07:23:23.964Z,10.23
2017-05-08T07:24:04.506Z,10.29
2017-05-08T07:24:45.048Z,10.3
2017-05-08T07:25:25.584Z,10.23
2017-05-08T07:26:06.116Z,10.25
2017-05-08T07:26:46.650Z,10.29
2017-05-08T07:27:27.190Z,10.26
2017-05-08T07:28:07.722Z,10.3
2017-05-08T07:28:48.257Z,10.27
2017-05-08T07:29:28.786Z,10.29
2017-05-08T07:30:09.321Z,10.27
2017-05-08T07:30:49.854Z,10.3
2017-05-08T07:31:30.382Z,10.27
2017-05-08T07:32:10.920Z,10.32
2017-05-08T07:32:51.463Z,10.27
2017-05-08T07:33:32.000Z,10.4
2017-05-08T07:34:12.539Z,10.38
2017-05-08T07:34:53.078Z,10.42
2017-05-08T07:35:33.614Z,10.36
2017-05-08T07:36:14.140Z,10.4
2017-05-08T07:36:54.686Z,10.36
2017-05-08T07:37:35.217Z,10.51
2017-05-08T07:38:15.767Z,10.42
2017-05-08T07:38:56.303Z,10.41
2017-05-08T07:39:36.854Z,10.4
2017-05-08T07:40:17.386Z,10.41
2017-05-08T07:40:57.926Z,10.38
2017-05-08T07:41:38.460Z,10.41
2017-05-08T07:42:18.996Z,10.32
2017-05-08T07:42:59.535Z,10.36
2017-05-08T07:43:40.071Z,10.33
2017-05-08T07:44:20.611Z,10.34
2017-05-08T07:45:01.138Z,10.3
2017-05-08T07:45:41.687Z,10.33
2017-05-08T07:46:22.216Z,10.33
2017-05-08T07:47:02.753Z,10.29
2017-05-08T07:47:43.294Z,10.22
2017-05-08T07:48:23.851Z,10.22
2017-05-08T07:49:04.376Z,10.15
2017-05-08T07:49:44.917Z,10.14
2017-05-08T07:50:25.455Z,10.07
2017-05-08T07:51:05.995Z,10.05
2017-05-08T07:51:46.516Z,10.07
2017-05-08T07:52:27.053Z,10.08
2017-05-08T07:53:07.589Z,10.02
2017-05-08T07:53:48.136Z,10.07
2017-05-08T07:54:28.671Z,10.04
2017-05-08T07:55:09.217Z,9.99
2017-05-08T07:55:49.758Z,10.02
2017-05-08T07:56:30.299Z,10.04
2017-05-08T07:57:10.842Z,10.01
2017-05-08T07:57:51.376Z,9.97
2017-05-08T07:58:31.914Z,10.01
2017-05-08T07:59:12.449Z,9.97
2017-05-08T07:59:52.987Z,9.9
2017-05-08T08:00:33.527Z,9.97
2017-05-08T08:01:14.064Z,10.04
2017-05-08T08:01:54.606Z,9.99
2017-05-08T08:02:35.133Z,9.89
2017-05-08T08:03:15.674Z,9.9
2017-05-08T08:03:56.209Z,9.87
2017-05-08T08:04:36.749Z,9.94
2017-05-08T08:05:17.300Z,9.91
2017-05-08T08:05:57.844Z,9.89
2017-05-08T08:06:38.379Z,9.93
2017-05-08T08:07:18.920Z,10.04
2017-05-08T08:07:59.462Z,10.01
2017-05-08T08:08:39.996Z,9.87
2017-05-08T08:09:20.517Z,9.87
2017-05-08T08:10:01.059Z,9.93
2017-05-08T08:10:41.597Z,9.94
2017-05-08T08:11:22.121Z,9.9
2017-05-08T08:12:02.667Z,9.9
2017-05-08T08:12:43.206Z,9.79
2017-05-08T08:13:23.740Z,9.75
2017-05-08T08:14:04.272Z,9.87
2017-05-08T08:14:44.810Z,9.86
2017-05-08T08:15:25.348Z,9.84
2017-05-08T08:16:05.882Z,9.97
2017-05-08T08:16:46.453Z,9.99
2017-05-08T08:17:26.989Z,9.97
2017-05-08T08:18:07.527Z,10.02
2017-05-08T08:18:48.069Z,10.08
2017-05-08T08:19:28.596Z,10.2
2017-05-08T08:20:09.135Z,10.26
2017-05-08T08:20:49.677Z,10.34
2017-05-08T08:21:30.208Z,10.42
2017-05-08T08:22:10.745Z,10.55
2017-05-08T08:22:51.289Z,10.64
2017-05-08T08:23:31.832Z,10.64
2017-05-08T08:24:12.364Z,10.7
2017-05-08T08:24:52.892Z,10.66
2017-05-08T08:25:33.432Z,10.66
2017-05-08T08:26:13.973Z,10.53
2017-05-08T08:26:54.509Z,10.47
2017-05-08T08:27:35.046Z,10.41
2017-05-08T08:28:15.586Z,10.34
2017-05-08T08:28:56.109Z,10.32
2017-05-08T08:29:36.643Z,10.29
2017-05-08T08:30:17.187Z,10.26
2017-05-08T08:30:57.724Z,10.29
2017-05-08T08:31:38.267Z,10.36
2017-05-08T08:32:18.804Z,10.33
2017-05-08T08:32:59.333Z,10.32
2017-05-08T08:33:39.868Z,10.4
2017-05-08T08:34:20.401Z,10.53
2017-05-08T08:35:00.937Z,10.59
2017-05-08T08:35:41.465Z,10.61
2017-05-08T08:36:22.004Z,10.76
2017-05-08T08:37:02.542Z,10.73
2017-05-08T08:37:43.083Z,10.82
2017-05-08T08:38:23.614Z,10.76
2017-05-08T08:39:04.147Z,10.88
2017-05-08T08:39:44.688Z,10.88
2017-05-08T08:40:25.219Z,10.88
2017-05-08T08:41:05.756Z,10.92
2017-05-08T08:41:46.298Z,10.92
2017-05-08T08:42:26.835Z,10.94
2017-05-08T08:43:07.365Z,10.79
2017-05-08T08:43:47.905Z,10.76
2017-05-08T08:44:28.471Z,10.63
2017-05-08T08:45:09.007Z,10.7
2017-05-08T08:45:49.535Z,10.64
2017-05-08T08:46:30.074Z,10.59
2017-05-08T08:47:10.610Z,10.59
2017-05-08T08:47:51.159Z,10.67
2017-05-08T08:48:31.689Z,10.53
2017-05-08T08:49:12.214Z,10.51
2017-05-08T08:49:52.748Z,10.44
2017-05-08T08:50:33.287Z,10.34
2017-05-08T08:51:13.828Z,10.34
2017-05-08T08:51:54.364Z,10.41
2017-05-08T08:52:34.900Z,10.33
2017-05-08T08:53:15.435Z,10.26